createdAt,value
2018-06-05T00:01:06.021Z,3.87
2018-06-05T00:03:32.521Z,2.80
2018-06-05T00:05:58.964Z,2.70
2018-06-05T00:08:25.489Z,2.90
2018-06-05T00:10:51.989Z,2.90
2018-06-05T00:13:18.467Z,2.77
2018-06-05T00:15:45.022Z,3.10
2018-06-05T00:18:11.501Z,3.00
2018-06-05T00:20:38.003Z,2.57
2018-06-05T00:23:04.471Z,3.07
2018-06-05T00:25:31.039Z,2.83
2018-06-05T00:27:57.576Z,2.92
2018-06-05T00:30:24.073Z,3.83
2018-06-05T00:32:50.548Z,3.23
2018-06-05T00:35:17.032Z,3.03
2018-06-05T00:37:43.529Z,3.35
2018-06-05T00:40:10.044Z,2.87
2018-06-05T00:42:36.514Z,2.70
2018-06-05T00:45:02.995Z,3.00
2018-06-05T00:47:29.456Z,3.17
2018-06-05T00:50:03.554Z,4.20
2018-06-05T00:52:30.029Z,2.83
2018-06-05T00:54:56.520Z,3.93
2018-06-05T00:57:22.996Z,2.83
2018-06-05T00:59:49.519Z,3.83
2018-06-05T01:02:16.628Z,2.40
2018-06-05T01:04:43.094Z,2.80
2018-06-05T01:07:09.568Z,2.80
2018-06-05T01:09:36.026Z,2.77
2018-06-05T01:12:02.512Z,2.93
2018-06-05T01:14:29.000Z,2.95
2018-06-05T01:16:55.482Z,2.75
2018-06-05T01:19:21.986Z,2.83
2018-06-05T01:21:48.468Z,2.60
2018-06-05T01:24:14.961Z,3.37
2018-06-05T01:26:42.062Z,3.08
2018-06-05T01:29:08.632Z,2.60
2018-06-05T01:31:35.092Z,2.90
2018-06-05T01:34:01.558Z,2.60
2018-06-05T01:36:28.038Z,2.70
2018-06-05T01:38:54.512Z,2.80
2018-06-05T01:41:20.960Z,2.60
2018-06-05T01:43:47.886Z,2.60
2018-06-05T01:46:14.428Z,2.70
2018-06-05T01:48:40.860Z,2.80
2018-06-05T01:51:07.437Z,2.77
2018-06-05T01:53:33.954Z,3.72
2018-06-05T01:56:00.448Z,2.77
2018-06-05T01:58:27.620Z,2.60
2018-06-05T02:00:54.127Z,2.72
2018-06-05T02:03:20.590Z,2.67
2018-06-05T02:05:47.562Z,2.87
2018-06-05T02:08:14.014Z,2.80
2018-06-05T02:10:40.491Z,2.80
2018-06-05T02:13:06.966Z,2.50
2018-06-05T02:15:33.454Z,3.00
2018-06-05T02:17:59.942Z,2.60
2018-06-05T02:20:26.406Z,2.80
2018-06-05T02:22:52.863Z,2.60
2018-06-05T02:25:19.316Z,3.20
2018-06-05T02:27:45.756Z,2.67
2018-06-05T02:30:12.212Z,3.00
2018-06-05T02:32:38.664Z,3.77
2018-06-05T02:35:05.115Z,2.60
2018-06-05T02:37:31.601Z,2.90
2018-06-05T02:39:58.588Z,2.73
2018-06-05T02:42:25.070Z,2.90
2018-06-05T02:44:51.553Z,2.70
2018-06-05T02:47:18.008Z,3.05
2018-06-05T02:49:44.462Z,3.17
2018-06-05T02:54:56.664Z,2.87
2018-06-05T02:57:23.192Z,3.00
2018-06-05T02:59:49.660Z,2.40
2018-06-05T03:02:16.147Z,2.73
2018-06-05T03:04:42.634Z,2.50
2018-06-05T03:07:09.126Z,2.80
2018-06-05T03:09:35.600Z,2.80
2018-06-05T03:12:02.075Z,3.33
2018-06-05T03:14:28.538Z,3.17
2018-06-05T03:16:55.084Z,2.73
2018-06-05T03:19:21.567Z,2.73
2018-06-05T03:21:48.026Z,2.77
2018-06-05T03:24:14.484Z,2.83
2018-06-05T03:26:41.604Z,2.60
2018-06-05T03:29:08.116Z,2.90
2018-06-05T03:31:34.584Z,3.03
2018-06-05T03:34:01.169Z,3.00
2018-06-05T03:36:27.615Z,2.43
2018-06-05T03:38:54.163Z,2.63
2018-06-05T03:41:20.744Z,2.47
2018-06-05T03:43:47.234Z,2.77
2018-06-05T03:46:13.691Z,3.30
2018-06-05T03:48:40.257Z,2.40
2018-06-05T03:51:06.775Z,2.60
2018-06-05T03:53:33.259Z,2.50
2018-06-05T03:55:59.747Z,2.83
2018-06-05T03:58:26.230Z,2.90
2018-06-05T04:00:52.712Z,2.45
2018-06-05T04:03:19.195Z,2.80
2018-06-05T04:05:45.739Z,2.70
2018-06-05T04:08:12.209Z,2.87
2018-06-05T04:10:38.693Z,2.90
2018-06-05T04:13:05.229Z,2.80
2018-06-05T04:15:31.691Z,3.00
2018-06-05T04:17:58.168Z,2.80
2018-06-05T04:20:24.658Z,2.90
2018-06-05T04:22:51.110Z,2.47
2018-06-05T04:25:17.599Z,2.53
2018-06-05T04:27:44.627Z,2.50
2018-06-05T04:30:11.124Z,3.40
2018-06-05T04:32:37.919Z,3.03
2018-06-05T04:35:04.468Z,3.00
2018-06-05T04:37:30.963Z,2.90
2018-06-05T04:39:57.483Z,3.00
2018-06-05T04:42:23.931Z,2.97
2018-06-05T04:44:50.521Z,3.77
2018-06-05T04:47:17.038Z,3.43
2018-06-05T04:49:43.535Z,2.70
2018-06-05T04:52:10.065Z,3.05
2018-06-05T04:54:36.523Z,3.30
2018-06-05T04:57:03.165Z,3.40
2018-06-05T04:59:29.643Z,3.63
2018-06-05T05:01:56.145Z,2.97
2018-06-05T05:04:22.632Z,2.77
2018-06-05T05:06:49.099Z,3.70
2018-06-05T05:09:15.600Z,3.03
2018-06-05T05:11:42.625Z,5.57
2018-06-05T05:14:09.104Z,3.37
2018-06-05T05:16:35.605Z,3.70
2018-06-05T05:19:02.125Z,3.57
2018-06-05T05:21:28.578Z,3.25
2018-06-05T05:23:55.055Z,3.57
2018-06-05T05:26:21.520Z,2.80
2018-06-05T05:28:47.967Z,4.05
2018-06-05T05:31:14.457Z,3.67
2018-06-05T05:33:40.943Z,3.43
2018-06-05T05:36:07.478Z,3.10
2018-06-05T05:38:33.962Z,3.08
2018-06-05T05:41:00.428Z,3.67
2018-06-05T05:43:26.870Z,2.87
2018-06-05T05:45:53.402Z,3.57
2018-06-05T05:48:19.900Z,3.40
2018-06-05T05:50:46.366Z,3.27
2018-06-05T05:53:12.811Z,3.70
2018-06-05T05:55:39.336Z,3.57
2018-06-05T05:58:05.786Z,3.17
2018-06-05T06:00:32.258Z,3.40
2018-06-05T06:02:58.722Z,3.30
2018-06-05T06:05:25.171Z,3.50
2018-06-05T06:07:51.648Z,3.52
2018-06-05T06:10:18.134Z,3.53
2018-06-05T06:12:45.431Z,3.40
2018-06-05T06:15:11.979Z,3.42
2018-06-05T06:17:38.474Z,4.03
2018-06-05T06:20:04.942Z,5.30
2018-06-05T06:22:32.102Z,4.40
2018-06-05T06:24:58.578Z,2.97
2018-06-05T06:27:25.062Z,3.27
2018-06-05T06:29:51.536Z,3.60
2018-06-05T06:32:18.045Z,3.60
2018-06-05T06:34:44.514Z,4.78
2018-06-05T06:37:11.564Z,4.60
2018-06-05T06:39:38.111Z,3.30
2018-06-05T06:42:04.539Z,3.42
2018-06-05T06:44:31.038Z,4.07
2018-06-05T06:46:57.468Z,3.33
2018-06-05T06:49:23.904Z,3.42
2018-06-05T06:51:50.372Z,3.43
2018-06-05T06:54:16.814Z,3.07
2018-06-05T06:56:43.296Z,5.70
2018-06-05T06:59:09.780Z,3.05
2018-06-05T07:01:36.761Z,3.30
2018-06-05T07:04:03.254Z,3.57
2018-06-05T07:06:29.762Z,3.10
2018-06-05T07:08:56.244Z,3.20
2018-06-05T07:11:22.734Z,3.00
2018-06-05T07:13:49.188Z,3.20
2018-06-05T07:16:15.673Z,3.10
2018-06-05T07:18:42.651Z,3.58
2018-06-05T07:21:09.144Z,3.20
2018-06-05T07:23:35.622Z,2.87
2018-06-05T07:26:02.134Z,3.17
2018-06-05T07:28:28.712Z,3.20
2018-06-05T07:30:55.221Z,2.90
2018-06-05T07:33:21.704Z,4.17
2018-06-05T07:35:48.188Z,3.80
2018-06-05T07:38:14.680Z,3.22
2018-06-05T07:40:41.176Z,3.37
2018-06-05T07:43:07.666Z,3.27
2018-06-05T07:45:34.142Z,3.27
2018-06-05T07:48:00.620Z,2.98
2018-06-05T07:50:27.092Z,3.40
2018-06-05T07:52:53.572Z,2.90
2018-06-05T07:55:20.092Z,2.77
2018-06-05T07:57:46.575Z,2.90
2018-06-05T08:00:13.084Z,3.07
2018-06-05T08:02:40.579Z,2.80
2018-06-05T08:05:07.077Z,3.10
2018-06-05T08:07:33.609Z,3.22
2018-06-05T08:10:00.090Z,3.43
2018-06-05T08:12:26.556Z,3.23
2018-06-05T08:14:53.064Z,3.13
2018-06-05T08:17:19.580Z,3.10
2018-06-05T08:19:46.205Z,3.12
2018-06-05T08:22:13.105Z,2.90
2018-06-05T08:24:39.597Z,3.37
2018-06-05T08:27:06.749Z,2.90
2018-06-05T08:29:33.241Z,3.03
2018-06-05T08:31:59.847Z,3.08
2018-06-05T08:34:26.289Z,2.98
2018-06-05T08:36:52.755Z,2.90
2018-06-05T08:39:19.218Z,3.53
2018-06-05T08:41:45.713Z,3.03
2018-06-05T08:44:12.219Z,2.80
2018-06-05T08:46:38.689Z,2.83
2018-06-05T08:49:05.167Z,3.13
2018-06-05T08:51:33.155Z,3.13
2018-06-05T08:53:59.675Z,3.17
2018-06-05T08:56:26.159Z,3.37
2018-06-05T08:58:52.735Z,2.60
2018-06-05T09:01:19.302Z,2.60
2018-06-05T09:03:45.903Z,3.20
2018-06-05T09:06:12.394Z,3.53
2018-06-05T09:08:38.890Z,2.73
2018-06-05T09:11:05.361Z,2.80
2018-06-05T09:13:31.837Z,3.00
2018-06-05T09:15:58.329Z,3.03
2018-06-05T09:18:24.785Z,3.40
2018-06-05T09:20:51.241Z,3.37
2018-06-05T09:23:17.797Z,3.13
2018-06-05T09:25:44.341Z,3.10
2018-06-05T09:28:10.821Z,3.00
2018-06-05T09:30:37.281Z,2.77
2018-06-05T09:33:03.817Z,3.30
2018-06-05T09:35:30.307Z,2.77
2018-06-05T09:37:56.771Z,3.03
2018-06-05T09:40:23.233Z,3.30
2018-06-05T09:42:49.705Z,2.85
2018-06-05T09:45:16.217Z,3.00
2018-06-05T09:47:42.712Z,2.90
2018-06-05T09:50:09.173Z,2.77
2018-06-05T09:52:35.695Z,3.03
2018-06-05T09:55:02.153Z,3.15
2018-06-05T09:57:28.606Z,3.03
2018-06-05T09:59:55.055Z,2.90
2018-06-05T10:02:21.508Z,3.05
2018-06-05T10:04:47.958Z,2.93
2018-06-05T10:07:14.373Z,3.03
2018-06-05T10:09:40.844Z,2.80
2018-06-05T10:12:07.412Z,3.22
2018-06-05T10:14:33.883Z,3.13
2018-06-05T10:17:00.366Z,3.13
2018-06-05T10:19:26.871Z,2.87
2018-06-05T10:21:53.393Z,3.02
2018-06-05T10:24:19.878Z,2.70
2018-06-05T10:26:46.328Z,3.17
2018-06-05T10:29:12.795Z,2.93
2018-06-05T10:31:39.298Z,3.00
2018-06-05T10:34:05.752Z,2.65
2018-06-05T10:36:32.244Z,2.80
2018-06-05T10:38:58.720Z,3.13
2018-06-05T10:41:25.232Z,2.70
2018-06-05T10:43:51.751Z,2.90
2018-06-05T10:46:18.237Z,2.70
2018-06-05T10:48:44.691Z,3.07
2018-06-05T10:51:11.194Z,3.50
2018-06-05T10:53:37.644Z,3.33
2018-06-05T10:56:04.604Z,3.23
2018-06-05T10:58:31.067Z,3.20
2018-06-05T11:00:57.532Z,3.03
2018-06-05T11:03:23.993Z,3.23
2018-06-05T11:05:50.470Z,3.07
2018-06-05T11:08:17.004Z,2.85
2018-06-05T11:10:43.539Z,3.00
2018-06-05T11:13:10.007Z,3.27
2018-06-05T11:15:36.462Z,3.20
2018-06-05T11:18:03.022Z,2.87
2018-06-05T11:20:29.495Z,3.02
2018-06-05T11:22:56.028Z,3.00
2018-06-05T11:25:22.497Z,3.50
2018-06-05T11:27:48.940Z,2.80
2018-06-05T11:30:15.410Z,3.43
2018-06-05T11:32:42.180Z,2.80
2018-06-05T11:35:08.678Z,3.00
2018-06-05T11:37:35.167Z,3.10
2018-06-05T11:40:01.655Z,2.90
2018-06-05T11:42:28.560Z,2.98
2018-06-05T11:44:55.077Z,2.83
2018-06-05T11:47:21.562Z,3.17
2018-06-05T11:49:48.051Z,3.00
2018-06-05T11:52:15.396Z,2.67
2018-06-05T11:54:41.890Z,3.10
2018-06-05T11:57:08.410Z,3.08
2018-06-05T11:59:34.870Z,3.00
2018-06-05T12:02:01.387Z,3.03
2018-06-05T12:04:27.884Z,2.73
2018-06-05T12:06:54.407Z,2.95
2018-06-05T12:09:20.917Z,2.60
2018-06-05T12:11:47.381Z,3.03
2018-06-05T12:14:13.825Z,2.97
2018-06-05T12:16:40.338Z,2.73
2018-06-05T12:19:06.785Z,2.92
2018-06-05T12:21:33.235Z,2.87
2018-06-05T12:23:59.669Z,2.93
2018-06-05T12:26:26.126Z,2.87
2018-06-05T12:28:52.617Z,3.07
2018-06-05T12:31:19.079Z,3.10
2018-06-05T12:33:45.574Z,2.60
2018-06-05T12:36:12.092Z,3.05
2018-06-05T12:38:38.585Z,2.97
2018-06-05T12:41:05.050Z,2.83
2018-06-05T12:43:31.547Z,2.80
2018-06-05T12:45:58.028Z,3.30
2018-06-05T12:48:24.543Z,2.65
2018-06-05T12:50:51.071Z,2.93
2018-06-05T12:53:17.583Z,2.83
2018-06-05T12:55:44.092Z,2.80
2018-06-05T12:58:10.591Z,2.90
2018-06-05T13:00:37.073Z,2.90
2018-06-05T13:03:03.549Z,3.07
2018-06-05T13:05:30.031Z,3.43
2018-06-05T13:07:56.502Z,2.85
2018-06-05T13:10:23.535Z,2.83
2018-06-05T13:12:49.986Z,3.00
2018-06-05T13:15:16.507Z,2.70
2018-06-05T13:17:43.025Z,2.77
2018-06-05T13:20:09.543Z,2.93
2018-06-05T13:22:36.721Z,3.13
2018-06-05T13:25:03.174Z,3.17
2018-06-05T13:27:29.709Z,2.53
2018-06-05T13:29:56.190Z,2.80
2018-06-05T13:32:22.664Z,2.55
2018-06-05T13:34:49.131Z,2.97
2018-06-05T13:37:15.618Z,3.03
2018-06-05T13:39:42.114Z,2.93
2018-06-05T13:42:08.882Z,2.93
2018-06-05T13:44:35.432Z,3.07
2018-06-05T13:47:02.003Z,2.90
2018-06-05T13:49:29.153Z,2.50
2018-06-05T13:51:55.652Z,3.03
2018-06-05T13:54:22.173Z,2.72
2018-06-05T13:56:48.667Z,4.58
2018-06-05T13:59:15.138Z,2.77
2018-06-05T14:01:41.626Z,2.90
2018-06-05T14:04:08.680Z,3.13
2018-06-05T14:06:35.162Z,3.20
2018-06-05T14:09:01.747Z,3.00
2018-06-05T14:11:29.229Z,2.57
2018-06-05T14:13:55.794Z,3.25
2018-06-05T14:16:22.272Z,2.90
2018-06-05T14:18:48.773Z,2.93
2018-06-05T14:21:15.297Z,3.37
2018-06-05T14:23:42.070Z,3.20
2018-06-05T14:26:08.561Z,3.27
2018-06-05T14:28:35.143Z,3.17
2018-06-05T14:31:01.631Z,3.90
2018-06-05T14:33:28.200Z,3.07
2018-06-05T14:35:54.679Z,4.17
2018-06-05T14:38:21.183Z,2.75
2018-06-05T14:40:48.300Z,3.30
2018-06-05T14:43:14.802Z,3.10
2018-06-05T14:45:41.367Z,3.02
2018-06-05T14:48:07.876Z,2.85
2018-06-05T14:50:34.419Z,2.87
2018-06-05T14:53:00.844Z,2.70
2018-06-05T14:55:27.321Z,3.80
2018-06-05T14:57:53.780Z,2.85
2018-06-05T15:00:20.259Z,2.80
2018-06-05T15:02:47.351Z,3.10
2018-06-05T15:05:13.829Z,2.83
2018-06-05T15:07:40.299Z,2.67
2018-06-05T15:10:06.775Z,2.83
2018-06-05T15:12:33.636Z,2.83
2018-06-05T15:15:00.114Z,2.90
2018-06-05T15:17:26.592Z,2.98
2018-06-05T15:20:03.486Z,2.85
2018-06-05T15:22:29.964Z,2.73
2018-06-05T15:24:56.432Z,2.40
2018-06-05T15:27:22.915Z,3.10
2018-06-05T15:29:49.434Z,3.03
2018-06-05T15:32:15.957Z,2.53
2018-06-05T15:34:42.481Z,2.80
2018-06-05T15:37:08.960Z,2.77
2018-06-05T15:39:35.476Z,2.75
2018-06-05T15:42:01.972Z,2.73
2018-06-05T15:44:28.478Z,3.00
2018-06-05T15:46:55.018Z,3.07
2018-06-05T15:49:21.520Z,2.50
2018-06-05T15:51:48.015Z,2.72
2018-06-05T15:54:14.514Z,2.70
2018-06-05T15:56:41.114Z,2.90
2018-06-05T15:59:08.149Z,2.73
2018-06-05T16:01:34.659Z,2.80
2018-06-05T16:04:01.161Z,2.60
2018-06-05T16:06:27.644Z,3.50
2018-06-05T16:08:54.178Z,2.73
2018-06-05T16:11:21.150Z,2.75
2018-06-05T16:13:47.663Z,2.70
2018-06-05T16:16:14.176Z,2.80
2018-06-05T16:18:41.436Z,3.12
2018-06-05T16:21:08.030Z,3.03
2018-06-05T16:23:34.540Z,3.07
2018-06-05T16:26:01.019Z,2.87
2018-06-05T16:28:27.658Z,2.60
2018-06-05T16:30:54.145Z,2.83
2018-06-05T16:33:20.669Z,3.00
2018-06-05T16:35:47.169Z,2.87
2018-06-05T16:38:13.692Z,2.70
2018-06-05T16:40:40.161Z,2.33
2018-06-05T16:43:06.693Z,2.80
2018-06-05T16:45:33.716Z,2.53
2018-06-05T16:48:00.295Z,3.05
2018-06-05T16:50:26.745Z,2.80
2018-06-05T16:52:53.261Z,2.53
2018-06-05T16:55:19.821Z,2.90
2018-06-05T16:57:46.313Z,2.83
2018-06-05T17:00:13.714Z,2.62
2018-06-05T17:02:40.275Z,2.70
2018-06-05T17:05:06.763Z,2.73
2018-06-05T17:07:33.243Z,2.50
2018-06-05T17:09:59.760Z,3.33
2018-06-05T17:12:26.209Z,2.70
2018-06-05T17:14:52.695Z,2.73
2018-06-05T17:17:19.225Z,3.00
2018-06-05T17:19:45.686Z,3.13
2018-06-05T17:22:12.454Z,3.27
2018-06-05T17:24:39.081Z,2.80
2018-06-05T17:27:05.574Z,3.00
2018-06-05T17:29:32.029Z,3.17
2018-06-05T17:31:58.511Z,3.23
2018-06-05T17:34:24.977Z,2.87
2018-06-05T17:36:51.456Z,2.97
2018-06-05T17:39:17.995Z,2.90
2018-06-05T17:41:44.478Z,2.90
2018-06-05T17:44:10.978Z,3.10
2018-06-05T17:46:37.454Z,2.70
2018-06-05T17:49:03.960Z,4.33
2018-06-05T17:51:30.952Z,2.75
2018-06-05T17:53:57.454Z,3.10
2018-06-05T17:56:23.963Z,2.87
2018-06-05T17:58:50.440Z,2.80
2018-06-05T18:01:16.951Z,3.20
2018-06-05T18:03:43.424Z,3.10
2018-06-05T18:06:09.971Z,3.43
2018-06-05T18:08:36.523Z,3.20
2018-06-05T18:11:03.030Z,2.37
2018-06-05T18:13:29.544Z,3.10
2018-06-05T18:15:56.720Z,3.23
2018-06-05T18:18:23.224Z,3.20
2018-06-05T18:20:49.703Z,4.57
2018-06-05T18:23:16.219Z,3.77
2018-06-05T18:25:42.715Z,4.43
2018-06-05T18:28:09.212Z,3.77
2018-06-05T18:30:35.690Z,4.20
2018-06-05T18:33:02.194Z,3.92
2018-06-05T18:35:28.691Z,3.30
2018-06-05T18:37:55.146Z,3.30
2018-06-05T18:40:21.669Z,3.70
2018-06-05T18:42:48.266Z,4.47
2018-06-05T18:45:14.814Z,3.83
2018-06-05T18:47:41.334Z,3.65
2018-06-05T18:50:07.834Z,4.03
2018-06-05T18:52:34.335Z,4.03
2018-06-05T18:55:00.860Z,3.80
2018-06-05T18:57:27.366Z,3.67
2018-06-05T18:59:54.344Z,4.33
2018-06-05T19:02:20.826Z,3.73
2018-06-05T19:04:47.319Z,3.90
2018-06-05T19:07:13.812Z,4.22
2018-06-05T19:09:40.292Z,4.07
2018-06-05T19:12:07.388Z,3.70
2018-06-05T19:14:33.924Z,3.62
2018-06-05T19:17:00.376Z,3.80
2018-06-05T19:19:26.890Z,3.83
2018-06-05T19:21:53.397Z,3.40
2018-06-05T19:24:19.917Z,3.72
2018-06-05T19:26:46.454Z,3.83
2018-06-05T19:29:12.978Z,4.03
2018-06-05T19:31:39.515Z,4.50
2018-06-05T19:34:06.018Z,3.90
2018-06-05T19:36:32.503Z,3.97
2018-06-05T19:38:58.999Z,4.22
2018-06-05T19:41:25.466Z,4.17
2018-06-05T19:43:51.978Z,4.90
2018-06-05T19:46:18.490Z,4.30
2018-06-05T19:48:45.026Z,4.20
2018-06-05T19:51:12.012Z,4.07
2018-06-05T19:53:38.503Z,3.60
2018-06-05T19:58:38.227Z,3.90
2018-06-05T20:01:04.705Z,3.80
2018-06-05T20:03:31.169Z,3.77
2018-06-05T20:05:57.661Z,4.13
2018-06-05T20:08:24.139Z,4.00
2018-06-05T20:10:50.623Z,3.90
2018-06-05T20:13:17.097Z,4.12
2018-06-05T20:15:43.551Z,4.27
2018-06-05T20:18:09.994Z,5.57
2018-06-05T20:20:37.027Z,3.90
2018-06-05T20:23:03.511Z,4.13
2018-06-05T20:25:30.039Z,4.30
2018-06-05T20:27:56.527Z,3.80
2018-06-05T20:30:23.092Z,3.87
2018-06-05T20:32:49.599Z,3.63
2018-06-05T20:35:16.742Z,4.20
2018-06-05T20:37:43.249Z,3.77
2018-06-05T20:40:09.729Z,4.55
2018-06-05T20:42:36.829Z,4.27
2018-06-05T20:45:03.329Z,4.10
2018-06-05T20:47:29.836Z,3.90
2018-06-05T20:50:03.949Z,4.17
2018-06-05T20:52:30.506Z,4.57
2018-06-05T20:54:57.020Z,3.63
2018-06-05T20:57:23.526Z,3.80
2018-06-05T20:59:49.998Z,3.80
2018-06-05T21:02:16.492Z,4.23
2018-06-05T21:04:42.954Z,3.63
2018-06-05T21:07:09.445Z,3.23
2018-06-05T21:09:35.909Z,4.05
2018-06-05T21:12:02.397Z,3.97
2018-06-05T21:14:28.995Z,3.97
2018-06-05T21:16:55.473Z,4.35
2018-06-05T21:19:21.940Z,3.80
2018-06-05T21:21:48.396Z,4.13
2018-06-05T21:24:14.926Z,4.10
2018-06-05T21:26:41.376Z,4.53
2018-06-05T21:29:07.900Z,4.00
2018-06-05T21:31:34.357Z,3.90
2018-06-05T21:34:00.959Z,4.13
2018-06-05T21:36:27.465Z,4.23
2018-06-05T21:38:54.568Z,4.60
2018-06-05T21:41:21.026Z,4.50
2018-06-05T21:43:47.489Z,4.00
2018-06-05T21:46:13.958Z,4.30
2018-06-05T21:48:40.455Z,3.73
2018-06-05T21:51:07.091Z,3.63
2018-06-05T21:53:33.574Z,3.70
2018-06-05T21:56:00.075Z,3.30
2018-06-05T21:58:27.049Z,3.83
2018-06-05T22:00:53.530Z,3.60
2018-06-05T22:03:20.008Z,3.70
2018-06-05T22:05:46.477Z,4.40
2018-06-05T22:08:12.968Z,3.63
2018-06-05T22:10:39.440Z,3.67
2018-06-05T22:13:05.954Z,3.65
2018-06-05T22:15:32.454Z,4.20
2018-06-05T22:17:58.889Z,3.53
2018-06-05T22:20:25.380Z,3.77
2018-06-05T22:22:51.870Z,4.07
2018-06-05T22:25:18.364Z,3.87
2018-06-05T22:27:44.864Z,4.07
2018-06-05T22:30:11.385Z,4.13
2018-06-05T22:32:40.360Z,4.42
2018-06-05T22:35:06.822Z,4.00
2018-06-05T22:37:33.377Z,3.50
2018-06-05T22:39:59.875Z,3.83
2018-06-05T22:42:26.682Z,3.93
2018-06-05T22:44:53.149Z,3.83
2018-06-05T22:47:19.646Z,4.17
2018-06-05T22:49:46.171Z,4.07
2018-06-05T22:52:12.610Z,3.60
2018-06-05T22:54:39.040Z,3.65
2018-06-05T22:57:05.534Z,3.60
2018-06-05T22:59:32.056Z,4.03
2018-06-05T23:01:58.522Z,4.40
2018-06-05T23:04:24.964Z,3.87
2018-06-05T23:06:51.446Z,4.23
2018-06-05T23:09:17.968Z,4.27
2018-06-05T23:11:44.978Z,4.20
2018-06-05T23:14:11.430Z,5.00
2018-06-05T23:16:37.872Z,3.60
2018-06-05T23:19:04.368Z,3.93
2018-06-05T23:21:30.865Z,4.00
2018-06-05T23:23:57.383Z,4.13
2018-06-05T23:26:23.936Z,4.37
2018-06-05T23:28:51.067Z,4.05
2018-06-05T23:31:17.574Z,3.83
2018-06-05T23:33:44.071Z,3.83
2018-06-05T23:36:10.670Z,4.08
2018-06-05T23:38:37.182Z,4.33
2018-06-05T23:41:03.685Z,3.67
2018-06-05T23:43:30.182Z,3.80
2018-06-05T23:45:56.671Z,3.53
2018-06-05T23:48:23.140Z,3.35
2018-06-05T23:50:49.619Z,3.63
2018-06-05T23:53:16.066Z,4.00
2018-06-05T23:55:42.577Z,3.67
2018-06-05T23:58:09.040Z,3.67
